createdAt,value
2017-09-08T00:00:32.352Z,0.00
2017-09-08T00:01:27.068Z,0.00
2017-09-08T00:02:22.275Z,0.00
2017-09-08T00:03:22.115Z,0.00
2017-09-08T00:04:16.300Z,0.00
2017-09-08T00:05:22.662Z,0.00
2017-09-08T00:06:16.684Z,0.00
2017-09-08T00:07:10.238Z,0.00
2017-09-08T00:08:04.253Z,0.00
2017-09-08T00:09:04.920Z,0.00
2017-09-08T00:10:04.315Z,0.00
2017-09-08T00:11:04.400Z,0.00
2017-09-08T00:12:04.398Z,0.00
2017-09-08T00:12:58.765Z,0.00
2017-09-08T00:13:47.591Z,0.00
2017-09-08T00:14:36.064Z,0.00
2017-09-08T00:15:30.527Z,0.00
2017-09-08T00:16:25.618Z,0.00
2017-09-08T00:17:21.118Z,0.00
2017-09-08T00:18:20.618Z,0.00
2017-09-08T00:19:09.703Z,0.00
2017-09-08T00:19:58.670Z,0.00
2017-09-08T00:20:52.832Z,0.00
2017-09-08T00:21:41.833Z,0.00
2017-09-08T00:22:30.415Z,0.00
2017-09-08T00:23:23.909Z,0.00
2017-09-08T00:24:12.417Z,0.00
2017-09-08T00:25:06.958Z,0.00
2017-09-08T00:26:02.086Z,0.00
2017-09-08T00:26:56.046Z,0.00
2017-09-08T00:27:44.130Z,0.00
2017-09-08T00:28:32.433Z,0.00
2017-09-08T00:29:32.684Z,0.00
2017-09-08T00:30:26.246Z,0.00
2017-09-08T00:31:21.214Z,0.00
2017-09-08T00:32:10.312Z,0.00
2017-09-08T00:33:10.347Z,0.00
2017-09-08T00:34:04.832Z,0.00
2017-09-08T00:35:04.390Z,0.00
2017-09-08T00:35:58.831Z,0.00
2017-09-08T00:36:46.890Z,0.00
2017-09-08T00:37:34.553Z,0.00
2017-09-08T00:38:35.675Z,0.00
2017-09-08T00:39:37.085Z,0.00
2017-09-08T00:40:25.668Z,0.00
2017-09-08T00:41:20.614Z,0.00
2017-09-08T00:42:14.715Z,0.00
2017-09-08T00:43:02.768Z,0.00
2017-09-08T00:43:52.274Z,0.00
2017-09-08T00:44:46.370Z,0.00
2017-09-08T00:45:34.834Z,0.00
2017-09-08T00:46:24.148Z,0.00
2017-09-08T00:47:17.961Z,0.00
2017-09-08T00:48:13.040Z,0.00
2017-09-08T00:49:07.508Z,0.00
2017-09-08T00:50:02.495Z,0.00
2017-09-08T00:50:56.081Z,0.00
2017-09-08T00:51:51.556Z,0.00
2017-09-08T00:52:51.362Z,0.00
2017-09-08T00:53:46.418Z,0.00
2017-09-08T00:54:40.833Z,0.00
2017-09-08T00:55:35.171Z,0.00
2017-09-08T00:56:30.303Z,0.00
2017-09-08T00:57:24.337Z,0.00
2017-09-08T00:58:19.373Z,0.00
2017-09-08T00:59:13.953Z,0.00
2017-09-08T01:00:08.518Z,0.00
2017-09-08T01:01:08.456Z,0.00
2017-09-08T01:01:56.519Z,0.00
2017-09-08T01:02:51.574Z,0.00
2017-09-08T01:03:46.001Z,0.00
2017-09-08T01:04:40.045Z,0.00
2017-09-08T01:05:39.657Z,0.00
2017-09-08T01:06:27.656Z,0.00
2017-09-08T01:07:22.746Z,0.00
2017-09-08T01:08:17.797Z,0.00
2017-09-08T01:09:12.359Z,0.00
2017-09-08T01:10:06.090Z,0.00
2017-09-08T01:11:00.462Z,0.00
2017-09-08T01:12:00.071Z,0.00
2017-09-08T01:13:00.043Z,0.00
2017-09-08T01:13:48.986Z,0.00
2017-09-08T01:14:43.453Z,0.00
2017-09-08T01:15:43.102Z,0.00
2017-09-08T01:16:37.089Z,0.00
2017-09-08T01:17:26.187Z,0.00
2017-09-08T01:18:20.151Z,0.00
2017-09-08T01:19:09.722Z,0.00
2017-09-08T01:20:10.242Z,0.00
2017-09-08T01:20:59.702Z,0.00
2017-09-08T01:21:53.382Z,0.00
2017-09-08T01:22:47.758Z,0.00
2017-09-08T01:23:42.393Z,0.00
2017-09-08T01:24:43.011Z,0.00
2017-09-08T01:25:31.505Z,0.00
2017-09-08T01:26:26.818Z,0.00
2017-09-08T01:27:20.720Z,0.00
2017-09-08T01:28:15.679Z,0.00
2017-09-08T01:29:05.063Z,0.00
2017-09-08T01:29:58.576Z,0.00
2017-09-08T01:30:58.835Z,0.00
2017-09-08T01:31:52.737Z,0.00
2017-09-08T01:32:47.830Z,0.00
2017-09-08T01:33:47.811Z,0.00
2017-09-08T01:34:43.126Z,0.00
2017-09-08T01:35:43.939Z,0.00
2017-09-08T01:36:38.864Z,0.00
2017-09-08T01:37:27.961Z,0.00
2017-09-08T01:38:23.370Z,0.00
2017-09-08T01:39:17.084Z,0.00
2017-09-08T01:40:11.099Z,0.00
2017-09-08T01:41:05.340Z,0.00
2017-09-08T01:42:00.122Z,0.00
2017-09-08T01:42:54.197Z,0.00
2017-09-08T01:43:43.375Z,0.00
2017-09-08T01:44:44.209Z,0.00
2017-09-08T01:45:32.258Z,0.00
2017-09-08T01:46:26.439Z,0.00
2017-09-08T01:47:20.791Z,0.00
2017-09-08T01:48:20.387Z,0.00
2017-09-08T01:49:15.055Z,0.00
2017-09-08T01:50:14.470Z,0.00
2017-09-08T01:51:08.506Z,0.00
2017-09-08T01:52:03.553Z,0.00
2017-09-08T01:52:52.541Z,0.00
2017-09-08T01:53:46.628Z,0.00
2017-09-08T01:54:40.752Z,0.00
2017-09-08T01:55:34.980Z,0.00
2017-09-08T01:56:34.727Z,0.00
2017-09-08T01:57:28.789Z,0.00
2017-09-08T01:58:23.096Z,0.00
2017-09-08T01:59:17.460Z,0.00
2017-09-08T02:00:12.014Z,0.00
2017-09-08T02:01:12.083Z,0.00
2017-09-08T02:01:59.903Z,0.00
2017-09-08T02:02:53.959Z,0.00
2017-09-08T02:03:48.041Z,0.00
2017-09-08T02:04:42.072Z,0.00
2017-09-08T02:05:43.417Z,0.00
2017-09-08T02:06:32.161Z,0.00
2017-09-08T02:07:27.140Z,0.00
2017-09-08T02:08:21.239Z,0.00
2017-09-08T02:09:21.581Z,0.00
2017-09-08T02:10:16.281Z,0.00
2017-09-08T02:11:16.757Z,0.00
2017-09-08T02:12:10.933Z,0.00
2017-09-08T02:13:10.735Z,0.00
2017-09-08T02:14:04.923Z,0.00
2017-09-08T02:15:04.409Z,0.00
2017-09-08T02:15:52.891Z,0.00
2017-09-08T02:16:47.567Z,0.00
2017-09-08T02:17:36.698Z,0.00
2017-09-08T02:18:30.975Z,0.00
2017-09-08T02:19:31.321Z,0.00
2017-09-08T02:20:25.228Z,0.00
2017-09-08T02:21:24.590Z,0.00
2017-09-08T02:22:19.744Z,0.00
2017-09-08T02:23:15.135Z,0.00
2017-09-08T02:24:15.384Z,0.00
2017-09-08T02:25:08.808Z,0.00
2017-09-08T02:26:02.875Z,0.00
2017-09-08T02:26:56.883Z,0.00
2017-09-08T02:27:56.946Z,0.00
2017-09-08T02:28:51.980Z,0.00
2017-09-08T02:29:52.595Z,0.00
2017-09-08T02:30:46.212Z,0.00
2017-09-08T02:31:46.104Z,0.00
2017-09-08T02:32:41.322Z,0.00
2017-09-08T02:33:36.182Z,0.00
2017-09-08T02:34:30.791Z,0.00
2017-09-08T02:35:19.268Z,0.00
2017-09-08T02:36:08.339Z,0.00
2017-09-08T02:36:57.789Z,0.00
2017-09-08T02:37:52.809Z,0.00
2017-09-08T02:38:52.443Z,0.00
2017-09-08T02:39:47.967Z,0.00
2017-09-08T02:40:47.447Z,0.00
2017-09-08T02:41:36.841Z,0.00
2017-09-08T02:42:31.862Z,0.00
2017-09-08T02:43:20.515Z,0.00
2017-09-08T02:44:27.103Z,0.00
2017-09-08T02:45:20.691Z,0.00
2017-09-08T02:46:14.651Z,0.00
2017-09-08T02:47:08.891Z,0.00
2017-09-08T02:48:08.692Z,0.00
2017-09-08T02:49:02.770Z,0.00
2017-09-08T02:49:57.160Z,0.00
2017-09-08T02:50:57.878Z,0.00
2017-09-08T02:51:52.901Z,0.00
2017-09-08T02:52:47.932Z,0.00
2017-09-08T02:53:47.992Z,0.00
2017-09-08T02:54:42.402Z,0.00
2017-09-08T02:55:43.186Z,0.00
2017-09-08T02:56:38.106Z,0.00
2017-09-08T02:57:39.112Z,0.00
2017-09-08T02:58:33.132Z,0.00
2017-09-08T02:59:22.375Z,0.00
2017-09-08T03:00:28.090Z,0.00
2017-09-08T03:01:22.232Z,0.00
2017-09-08T03:02:22.687Z,0.00
2017-09-08T03:03:10.284Z,0.00
2017-09-08T03:03:59.338Z,0.00
2017-09-08T03:04:47.390Z,0.00
2017-09-08T03:05:47.471Z,0.00
2017-09-08T03:06:35.495Z,0.00
2017-09-08T03:07:41.464Z,0.00
2017-09-08T03:08:36.576Z,0.00
2017-09-08T03:09:25.168Z,0.00
2017-09-08T03:10:18.529Z,0.00
2017-09-08T03:11:12.684Z,0.00
2017-09-08T03:12:12.651Z,0.00
2017-09-08T03:13:01.698Z,0.00
2017-09-08T03:13:55.748Z,0.00
2017-09-08T03:14:56.547Z,0.00
2017-09-08T03:15:57.337Z,0.00
2017-09-08T03:16:57.822Z,0.00
2017-09-08T03:17:46.892Z,0.00
2017-09-08T03:18:42.564Z,0.00
2017-09-08T03:19:35.966Z,0.00
2017-09-08T03:20:24.022Z,0.00
2017-09-08T03:21:12.255Z,0.00
2017-09-08T03:22:01.038Z,0.00
2017-09-08T03:22:55.174Z,0.00
2017-09-08T03:23:55.184Z,0.00
2017-09-08T03:24:44.623Z,0.00
2017-09-08T03:25:39.235Z,0.00
2017-09-08T03:26:33.452Z,0.00
2017-09-08T03:27:28.283Z,0.00
2017-09-08T03:28:22.369Z,0.00
2017-09-08T03:29:22.829Z,0.00
2017-09-08T03:30:17.393Z,0.00
2017-09-08T03:31:11.492Z,0.00
2017-09-08T03:32:11.939Z,0.00
2017-09-08T03:32:59.542Z,0.00
2017-09-08T03:33:54.575Z,0.00
2017-09-08T03:34:48.619Z,0.00
2017-09-08T03:35:42.605Z,0.00
2017-09-08T03:36:32.086Z,0.00
2017-09-08T03:37:19.783Z,0.00
2017-09-08T03:38:13.775Z,0.00
2017-09-08T03:39:01.926Z,0.00
2017-09-08T03:39:57.525Z,0.00
2017-09-08T03:40:45.868Z,0.00
2017-09-08T03:41:40.909Z,0.00
2017-09-08T03:42:34.910Z,0.00
2017-09-08T03:43:34.994Z,0.00
2017-09-08T03:44:29.348Z,0.00
2017-09-08T03:45:18.114Z,0.00
2017-09-08T03:46:13.073Z,0.00
2017-09-08T03:47:07.137Z,0.00
2017-09-08T03:48:07.198Z,0.00
2017-09-08T03:49:07.224Z,0.00
2017-09-08T03:50:02.234Z,0.00
2017-09-08T03:50:56.275Z,0.00
2017-09-08T03:51:44.308Z,0.00
2017-09-08T03:52:39.569Z,0.00
2017-09-08T03:53:34.908Z,0.00
2017-09-08T03:54:23.541Z,0.00
2017-09-08T03:55:23.487Z,0.00
2017-09-08T03:56:18.501Z,0.00
2017-09-08T03:57:08.157Z,0.00
2017-09-08T03:58:13.594Z,0.00
2017-09-08T03:59:01.586Z,0.00
2017-09-08T04:00:01.604Z,0.00
2017-09-08T04:00:56.007Z,0.00
2017-09-08T04:01:49.697Z,0.00
2017-09-08T04:02:43.948Z,0.00
2017-09-08T04:03:43.796Z,0.00
2017-09-08T04:04:38.762Z,0.00
2017-09-08T04:05:27.905Z,0.00
2017-09-08T04:06:16.982Z,0.00
2017-09-08T04:07:05.912Z,0.00
2017-09-08T04:07:59.930Z,0.00
2017-09-08T04:09:00.040Z,0.00
2017-09-08T04:09:54.634Z,0.00
2017-09-08T04:10:54.125Z,0.00
2017-09-08T04:11:48.285Z,0.00
2017-09-08T04:12:48.193Z,0.00
2017-09-08T04:13:42.156Z,0.00
2017-09-08T04:14:42.838Z,0.00
2017-09-08T04:15:42.301Z,0.00
2017-09-08T04:16:36.257Z,0.00
2017-09-08T04:17:24.315Z,0.00
2017-09-08T04:18:18.417Z,0.00
2017-09-08T04:19:12.563Z,0.00
2017-09-08T04:20:07.670Z,0.00
2017-09-08T04:20:56.445Z,0.00
2017-09-08T04:21:44.592Z,0.00
2017-09-08T04:22:40.376Z,0.00
2017-09-08T04:23:33.625Z,0.00
2017-09-08T04:24:22.669Z,0.00
2017-09-08T04:25:16.642Z,0.00
2017-09-08T04:26:05.720Z,0.00
2017-09-08T04:27:00.081Z,0.00
2017-09-08T04:28:00.159Z,0.00
2017-09-08T04:28:53.792Z,0.00
2017-09-08T04:29:48.084Z,0.00
2017-09-08T04:30:36.872Z,0.00
2017-09-08T04:31:36.947Z,0.00
2017-09-08T04:32:37.919Z,0.00
2017-09-08T04:33:32.016Z,0.00
2017-09-08T04:34:27.395Z,0.00
2017-09-08T04:35:21.102Z,0.00
2017-09-08T04:36:21.135Z,0.00
2017-09-08T04:37:21.162Z,0.00
2017-09-08T04:38:21.215Z,0.00
2017-09-08T04:39:15.764Z,0.00
2017-09-08T04:40:09.250Z,0.00
2017-09-08T04:41:03.279Z,0.00
2017-09-08T04:41:57.341Z,0.00
2017-09-08T04:42:52.356Z,0.00
2017-09-08T04:43:53.387Z,0.00
2017-09-08T04:44:41.703Z,0.00
2017-09-08T04:45:35.489Z,0.00
2017-09-08T04:46:29.525Z,0.00
2017-09-08T04:47:18.580Z,0.00
2017-09-08T04:48:13.549Z,0.00
2017-09-08T04:49:09.240Z,0.00
2017-09-08T04:50:08.768Z,0.00
2017-09-08T04:51:02.651Z,0.00
2017-09-08T04:51:52.247Z,0.00
2017-09-08T04:52:47.257Z,0.00
2017-09-08T04:53:41.060Z,0.00
2017-09-08T04:54:41.393Z,0.00
2017-09-08T04:55:36.293Z,0.00
2017-09-08T04:56:31.390Z,0.00
2017-09-08T04:57:31.916Z,0.00
2017-09-08T04:58:32.099Z,0.00
2017-09-08T04:59:31.958Z,0.00
2017-09-08T05:00:27.000Z,0.00
2017-09-08T05:01:21.507Z,0.00
2017-09-08T05:02:09.139Z,0.00
2017-09-08T05:03:09.173Z,0.00
2017-09-08T05:04:03.203Z,0.00
2017-09-08T05:04:58.245Z,0.00
2017-09-08T05:05:53.305Z,0.00
2017-09-08T05:06:47.398Z,0.00
2017-09-08T05:07:36.321Z,0.00
2017-09-08T05:08:25.430Z,0.00
2017-09-08T05:09:15.022Z,0.00
2017-09-08T05:10:09.576Z,0.00
2017-09-08T05:10:58.569Z,0.00
2017-09-08T05:11:58.532Z,0.00
2017-09-08T05:12:58.652Z,0.00
2017-09-08T05:13:52.626Z,0.00
2017-09-08T05:14:46.728Z,0.00
2017-09-08T05:15:35.656Z,0.00
2017-09-08T05:16:35.709Z,0.01
2017-09-08T05:17:25.052Z,0.01
2017-09-08T05:18:12.787Z,0.01
2017-09-08T05:19:13.496Z,0.01
2017-09-08T05:20:07.897Z,0.01
2017-09-08T05:21:02.210Z,0.01
2017-09-08T05:21:56.981Z,0.01
2017-09-08T05:22:58.294Z,0.01
2017-09-08T05:23:47.008Z,0.01
2017-09-08T05:24:35.042Z,0.01
2017-09-08T05:25:35.107Z,0.01
2017-09-08T05:26:29.177Z,0.01
2017-09-08T05:27:23.198Z,0.01
2017-09-08T05:28:23.251Z,0.01
2017-09-08T05:29:18.031Z,0.01
2017-09-08T05:30:11.297Z,0.01
2017-09-08T05:31:00.288Z,0.01
2017-09-08T05:31:55.308Z,0.01
2017-09-08T05:32:55.370Z,0.01
2017-09-08T05:33:49.786Z,0.01
2017-09-08T05:34:39.070Z,0.01
2017-09-08T05:35:32.506Z,0.01
2017-09-08T05:36:26.579Z,0.01
2017-09-08T05:37:26.665Z,0.01
2017-09-08T05:38:20.672Z,0.01
2017-09-08T05:39:21.301Z,0.01
2017-09-08T05:40:20.730Z,0.01
2017-09-08T05:41:09.735Z,0.01
2017-09-08T05:42:09.771Z,0.01
2017-09-08T05:43:03.782Z,0.01
2017-09-08T05:43:58.882Z,0.01
2017-09-08T05:44:54.626Z,0.01
2017-09-08T05:45:41.944Z,0.01
2017-09-08T05:46:30.954Z,0.01
2017-09-08T05:47:26.006Z,0.01
2017-09-08T05:48:20.031Z,0.01
2017-09-08T05:49:14.674Z,0.01
2017-09-08T05:50:08.096Z,0.01
2017-09-08T05:51:02.198Z,0.01
2017-09-08T05:51:56.189Z,0.01
2017-09-08T05:52:45.163Z,0.01
2017-09-08T05:53:39.304Z,0.02
2017-09-08T05:54:33.342Z,0.02
2017-09-08T05:55:28.349Z,0.02
2017-09-08T05:56:22.366Z,0.02
2017-09-08T05:57:18.053Z,0.02
2017-09-08T05:58:12.456Z,0.02
2017-09-08T05:59:06.530Z,0.02
2017-09-08T06:00:06.599Z,0.02
2017-09-08T06:01:01.673Z,0.02
2017-09-08T06:01:56.824Z,0.02
2017-09-08T06:02:44.703Z,0.02
2017-09-08T06:03:44.783Z,0.02
2017-09-08T06:04:33.743Z,0.02
2017-09-08T06:05:27.797Z,0.02
2017-09-08T06:06:21.890Z,0.02
2017-09-08T06:07:09.906Z,0.02
2017-09-08T06:08:03.887Z,0.02
2017-09-08T06:08:57.891Z,0.02
2017-09-08T06:09:51.846Z,0.02
2017-09-08T06:10:40.360Z,0.02
2017-09-08T06:11:34.030Z,0.02
2017-09-08T06:12:28.067Z,0.02
2017-09-08T06:13:22.398Z,0.03
2017-09-08T06:14:17.143Z,0.03
2017-09-08T06:15:17.261Z,0.03
2017-09-08T06:16:12.363Z,0.03
2017-09-08T06:17:12.658Z,0.04
2017-09-08T06:18:06.222Z,0.04
2017-09-08T06:19:00.507Z,0.04
2017-09-08T06:19:54.356Z,0.05
2017-09-08T06:20:48.833Z,0.06
2017-09-08T06:21:42.387Z,0.07
2017-09-08T06:22:31.935Z,0.07
2017-09-08T06:23:25.691Z,0.08
2017-09-08T06:24:15.373Z,0.09
2017-09-08T06:25:08.970Z,0.10
2017-09-08T06:26:08.674Z,0.10
2017-09-08T06:27:08.670Z,0.10
2017-09-08T06:28:03.069Z,0.10
2017-09-08T06:29:02.940Z,0.10
2017-09-08T06:29:57.779Z,0.10
2017-09-08T06:30:57.866Z,0.11
2017-09-08T06:31:52.359Z,0.10
2017-09-08T06:32:45.929Z,0.09
2017-09-08T06:33:45.959Z,0.08
2017-09-08T06:34:41.341Z,0.07
2017-09-08T06:35:29.037Z,0.07
2017-09-08T06:36:29.083Z,0.06
2017-09-08T06:37:24.159Z,0.06
2017-09-08T06:38:18.119Z,0.06
2017-09-08T06:39:13.811Z,0.06
2017-09-08T06:40:08.579Z,0.06
2017-09-08T06:41:02.465Z,0.06
2017-09-08T06:42:03.598Z,0.06
2017-09-08T06:42:57.355Z,0.06
2017-09-08T06:43:51.308Z,0.06
2017-09-08T06:44:52.424Z,0.06
2017-09-08T06:45:46.465Z,0.05
2017-09-08T06:46:41.452Z,0.04
2017-09-08T06:47:30.948Z,0.04
2017-09-08T06:48:24.643Z,0.05
2017-09-08T06:49:20.021Z,0.06
2017-09-08T06:50:14.620Z,0.06
2017-09-08T06:51:09.089Z,0.07
2017-09-08T06:52:08.712Z,0.07
2017-09-08T06:53:02.786Z,0.07
2017-09-08T06:54:02.848Z,0.07
2017-09-08T06:54:56.853Z,0.06
2017-09-08T06:55:51.318Z,0.05
2017-09-08T06:56:45.943Z,0.05
2017-09-08T06:57:40.530Z,0.05
2017-09-08T06:58:35.000Z,0.05
2017-09-08T06:59:29.105Z,0.06
2017-09-08T07:00:24.059Z,0.07
2017-09-08T07:01:24.104Z,0.07
2017-09-08T07:02:18.646Z,0.09
2017-09-08T07:03:18.198Z,0.09
2017-09-08T07:04:18.325Z,0.10
2017-09-08T07:05:12.643Z,0.10
2017-09-08T07:06:13.854Z,0.09
2017-09-08T07:07:07.524Z,0.09
2017-09-08T07:08:07.362Z,0.08
2017-09-08T07:09:01.401Z,0.07
2017-09-08T07:09:55.426Z,0.07
2017-09-08T07:10:56.481Z,0.07
2017-09-08T07:11:50.535Z,0.07
2017-09-08T07:12:50.740Z,0.06
2017-09-08T07:13:44.554Z,0.07
2017-09-08T07:14:45.188Z,0.07
2017-09-08T07:15:38.647Z,0.07
2017-09-08T07:16:33.778Z,0.07
2017-09-08T07:17:33.730Z,0.08
2017-09-08T07:18:22.831Z,0.07
2017-09-08T07:19:12.553Z,0.08
2017-09-08T07:20:07.499Z,0.09
2017-09-08T07:21:00.973Z,0.10
2017-09-08T07:22:01.481Z,0.11
2017-09-08T07:22:55.031Z,0.11
2017-09-08T07:23:49.055Z,0.11
2017-09-08T07:24:38.276Z,0.11
2017-09-08T07:25:33.182Z,0.11
2017-09-08T07:26:33.138Z,0.10
2017-09-08T07:27:22.185Z,0.09
2017-09-08T07:28:22.268Z,0.07
2017-09-08T07:29:17.015Z,0.06
2017-09-08T07:30:11.321Z,0.06
2017-09-08T07:31:06.341Z,0.06
2017-09-08T07:32:00.408Z,0.07
2017-09-08T07:32:55.471Z,0.07
2017-09-08T07:33:55.810Z,0.08
2017-09-08T07:34:50.610Z,0.08
2017-09-08T07:35:50.630Z,0.07
2017-09-08T07:36:44.634Z,0.06
2017-09-08T07:37:38.684Z,0.06
2017-09-08T07:38:32.660Z,0.08
2017-09-08T07:39:32.679Z,0.09
2017-09-08T07:40:27.464Z,0.10
2017-09-08T07:41:26.718Z,0.10
2017-09-08T07:42:27.112Z,0.11
2017-09-08T07:43:20.899Z,0.11
2017-09-08T07:44:20.952Z,0.10
2017-09-08T07:45:14.967Z,0.10
2017-09-08T07:46:04.054Z,0.10
2017-09-08T07:47:03.990Z,0.11
2017-09-08T07:47:59.114Z,0.12
2017-09-08T07:48:54.129Z,0.10
2017-09-08T07:49:49.145Z,0.09
2017-09-08T07:50:49.168Z,0.09
2017-09-08T07:51:43.213Z,0.09
2017-09-08T07:52:38.199Z,0.10
2017-09-08T07:53:39.288Z,0.11
2017-09-08T07:54:34.704Z,0.11
2017-09-08T07:55:29.371Z,0.11
2017-09-08T07:56:23.410Z,0.11
2017-09-08T07:57:23.525Z,0.10
2017-09-08T07:58:12.492Z,0.10
2017-09-08T07:59:13.116Z,0.10
2017-09-08T08:00:12.864Z,0.11
2017-09-08T08:01:06.778Z,0.11
2017-09-08T08:02:00.668Z,0.10
2017-09-08T08:03:01.662Z,0.11
2017-09-08T08:04:02.732Z,0.11
2017-09-08T08:04:56.750Z,0.11
2017-09-08T08:05:45.843Z,0.11
2017-09-08T08:06:39.896Z,0.10
2017-09-08T08:07:39.851Z,0.10
2017-09-08T08:08:33.944Z,0.10
2017-09-08T08:09:34.215Z,0.09
2017-09-08T08:10:23.180Z,0.09
2017-09-08T08:11:12.288Z,0.09
2017-09-08T08:12:06.040Z,0.10
2017-09-08T08:13:06.070Z,0.12
2017-09-08T08:14:00.128Z,0.13
2017-09-08T08:15:00.202Z,0.14
2017-09-08T08:15:55.259Z,0.15
2017-09-08T08:16:49.253Z,0.15
2017-09-08T08:17:43.834Z,0.14
2017-09-08T08:18:38.297Z,0.13
2017-09-08T08:19:38.419Z,0.12
2017-09-08T08:20:27.506Z,0.10
2017-09-08T08:21:22.370Z,0.09
2017-09-08T08:22:16.479Z,0.08
2017-09-08T08:23:11.683Z,0.07
2017-09-08T08:24:11.583Z,0.07
2017-09-08T08:25:12.118Z,0.08
2017-09-08T08:26:11.678Z,0.08
2017-09-08T08:27:11.940Z,0.09
2017-09-08T08:28:05.796Z,0.11
2017-09-08T08:28:59.732Z,0.12
2017-09-08T08:29:55.061Z,0.11
2017-09-08T08:30:54.853Z,0.10
2017-09-08T08:31:49.912Z,0.10
2017-09-08T08:32:50.303Z,0.09
2017-09-08T08:33:43.970Z,0.09
2017-09-08T08:34:38.965Z,0.11
2017-09-08T08:35:39.321Z,0.13
2017-09-08T08:36:28.097Z,0.14
2017-09-08T08:37:23.169Z,0.16
2017-09-08T08:38:17.169Z,0.15
2017-09-08T08:39:11.192Z,0.14
2017-09-08T08:40:06.280Z,0.14
2017-09-08T08:41:00.271Z,0.13
2017-09-08T08:42:00.378Z,0.12
2017-09-08T08:43:00.401Z,0.14
2017-09-08T08:43:54.321Z,0.13
2017-09-08T08:44:49.433Z,0.13
2017-09-08T08:45:49.624Z,0.14
2017-09-08T08:46:43.564Z,0.18
2017-09-08T08:47:43.579Z,0.20
2017-09-08T08:48:37.569Z,0.20
2017-09-08T08:49:31.647Z,0.19
2017-09-08T08:50:20.687Z,0.18
2017-09-08T08:51:14.736Z,0.14
2017-09-08T08:52:08.769Z,0.12
2017-09-08T08:53:09.230Z,0.12
2017-09-08T08:53:57.910Z,0.12
2017-09-08T08:54:57.927Z,0.12
2017-09-08T08:55:51.995Z,0.11
2017-09-08T08:56:46.443Z,0.11
2017-09-08T08:57:45.958Z,0.14
2017-09-08T08:58:41.120Z,0.13
2017-09-08T08:59:35.066Z,0.12
2017-09-08T09:00:35.125Z,0.12
2017-09-08T09:01:35.113Z,0.13
2017-09-08T09:02:35.819Z,0.13
2017-09-08T09:03:24.185Z,0.13
2017-09-08T09:04:19.012Z,0.12
2017-09-08T09:05:13.394Z,0.11
2017-09-08T09:06:07.597Z,0.12
2017-09-08T09:07:07.312Z,0.13
2017-09-08T09:08:02.731Z,0.14
2017-09-08T09:08:57.485Z,0.15
2017-09-08T09:09:45.535Z,0.14
2017-09-08T09:10:45.548Z,0.14
2017-09-08T09:11:39.702Z,0.13
2017-09-08T09:12:39.667Z,0.15
2017-09-08T09:13:34.091Z,0.16
2017-09-08T09:14:28.007Z,0.15
2017-09-08T09:15:22.840Z,0.14
2017-09-08T09:16:22.695Z,0.16
2017-09-08T09:17:18.227Z,0.16
2017-09-08T09:18:13.243Z,0.16
2017-09-08T09:19:02.094Z,0.19
2017-09-08T09:20:03.257Z,0.19
2017-09-08T09:21:03.014Z,0.19
2017-09-08T09:22:02.966Z,0.19
2017-09-08T09:23:03.031Z,0.19
2017-09-08T09:24:03.677Z,0.19
2017-09-08T09:25:03.698Z,0.19
2017-09-08T09:25:57.306Z,0.16
2017-09-08T09:26:52.657Z,0.13
2017-09-08T09:27:46.322Z,0.13
2017-09-08T09:28:40.394Z,0.14
2017-09-08T09:29:40.530Z,0.14
2017-09-08T09:30:35.917Z,0.14
2017-09-08T09:31:35.701Z,0.17
2017-09-08T09:32:29.601Z,0.16
2017-09-08T09:33:30.877Z,0.15
2017-09-08T09:34:31.802Z,0.13
2017-09-08T09:35:26.022Z,0.12
2017-09-08T09:36:19.689Z,0.13
2017-09-08T09:37:15.004Z,0.12
2017-09-08T09:38:15.818Z,0.09
2017-09-08T09:39:09.907Z,0.10
2017-09-08T09:39:58.905Z,0.10
2017-09-08T09:40:54.349Z,0.11
2017-09-08T09:41:49.033Z,0.11
2017-09-08T09:42:55.089Z,0.13
2017-09-08T09:43:49.956Z,0.14
2017-09-08T09:44:45.098Z,0.13
2017-09-08T09:45:45.508Z,0.11
2017-09-08T09:46:39.111Z,0.11
2017-09-08T09:47:28.169Z,0.10
2017-09-08T09:48:22.316Z,0.11
2017-09-08T09:49:17.872Z,0.13
2017-09-08T09:50:11.359Z,0.13
2017-09-08T09:51:11.673Z,0.15
2017-09-08T09:52:00.850Z,0.16
2017-09-08T09:52:54.457Z,0.16
2017-09-08T09:53:54.491Z,0.15
2017-09-08T09:54:49.402Z,0.16
2017-09-08T09:55:50.024Z,0.15
2017-09-08T09:56:43.618Z,0.13
2017-09-08T09:57:43.640Z,0.16
2017-09-08T09:58:38.687Z,0.14
2017-09-08T09:59:33.747Z,0.13
2017-09-08T10:00:27.689Z,0.13
2017-09-08T10:01:22.706Z,0.14
2017-09-08T10:02:16.785Z,0.13
2017-09-08T10:03:05.868Z,0.13
2017-09-08T10:04:00.885Z,0.12
2017-09-08T10:04:54.989Z,0.13
2017-09-08T10:05:50.023Z,0.13
2017-09-08T10:06:50.142Z,0.10
2017-09-08T10:07:44.103Z,0.10
2017-09-08T10:08:39.051Z,0.10
2017-09-08T10:09:33.402Z,0.09
2017-09-08T10:10:28.255Z,0.08
2017-09-08T10:11:23.205Z,0.07
2017-09-08T10:12:23.317Z,0.07
2017-09-08T10:13:18.338Z,0.08
2017-09-08T10:14:18.967Z,0.08
2017-09-08T10:15:13.434Z,0.12
2017-09-08T10:16:01.474Z,0.12
2017-09-08T10:16:56.564Z,0.11
2017-09-08T10:17:50.493Z,0.10
2017-09-08T10:18:38.656Z,0.09
2017-09-08T10:19:34.161Z,0.11
2017-09-08T10:20:28.750Z,0.17
2017-09-08T10:21:23.129Z,0.18
2017-09-08T10:22:17.639Z,0.14
2017-09-08T10:23:17.723Z,0.14
2017-09-08T10:24:11.884Z,0.16
2017-09-08T10:25:05.804Z,0.14
2017-09-08T10:25:54.861Z,0.17
2017-09-08T10:26:49.321Z,0.18
2017-09-08T10:27:44.412Z,0.18
2017-09-08T10:28:44.040Z,0.19
2017-09-08T10:29:38.254Z,0.20
2017-09-08T10:30:39.015Z,0.19
2017-09-08T10:31:33.789Z,0.19
2017-09-08T10:32:27.159Z,0.20
2017-09-08T10:33:27.164Z,0.20
2017-09-08T10:34:21.780Z,0.18
2017-09-08T10:35:10.347Z,0.18
2017-09-08T10:36:04.305Z,0.18
2017-09-08T10:36:59.375Z,0.17
2017-09-08T10:37:48.482Z,0.16
2017-09-08T10:38:43.933Z,0.15
2017-09-08T10:39:43.940Z,0.16
2017-09-08T10:40:38.451Z,0.16
2017-09-08T10:41:26.635Z,0.13
2017-09-08T10:42:26.575Z,0.11
2017-09-08T10:43:21.582Z,0.10
2017-09-08T10:44:10.093Z,0.08
2017-09-08T10:45:11.122Z,0.09
2017-09-08T10:46:05.032Z,0.09
2017-09-08T10:46:59.838Z,0.10
2017-09-08T10:47:49.161Z,0.10
2017-09-08T10:48:42.879Z,0.10
2017-09-08T10:49:37.857Z,0.11
2017-09-08T10:50:33.400Z,0.12
2017-09-08T10:51:27.015Z,0.13
2017-09-08T10:52:27.106Z,0.13
2017-09-08T10:53:21.137Z,0.13
2017-09-08T10:54:21.989Z,0.12
2017-09-08T10:55:16.288Z,0.12
2017-09-08T10:56:10.725Z,0.13
2017-09-08T10:56:58.222Z,0.13
2017-09-08T10:57:47.323Z,0.14
2017-09-08T10:58:41.346Z,0.14
2017-09-08T10:59:36.437Z,0.14
2017-09-08T11:00:31.484Z,0.16
2017-09-08T11:01:25.548Z,0.15
2017-09-08T11:02:19.584Z,0.13
2017-09-08T11:03:13.587Z,0.11
2017-09-08T11:04:09.135Z,0.08
2017-09-08T11:04:57.727Z,0.08
2017-09-08T11:05:51.702Z,0.10
2017-09-08T11:06:51.698Z,0.11
2017-09-08T11:07:40.791Z,0.12
2017-09-08T11:08:35.823Z,0.15
2017-09-08T11:09:35.909Z,0.16
2017-09-08T11:10:30.479Z,0.18
2017-09-08T11:11:29.846Z,0.17
2017-09-08T11:12:29.929Z,0.16
2017-09-08T11:13:24.466Z,0.15
2017-09-08T11:14:24.206Z,0.13
2017-09-08T11:15:19.109Z,0.13
2017-09-08T11:16:13.067Z,0.14
2017-09-08T11:17:08.156Z,0.13
2017-09-08T11:18:02.186Z,0.14
2017-09-08T11:18:50.259Z,0.13
2017-09-08T11:19:44.325Z,0.14
2017-09-08T11:20:33.382Z,0.13
2017-09-08T11:21:21.675Z,0.12
2017-09-08T11:22:09.324Z,0.11
2017-09-08T11:22:58.456Z,0.12
2017-09-08T11:23:53.546Z,0.12
2017-09-08T11:24:48.021Z,0.12
2017-09-08T11:25:47.567Z,0.12
2017-09-08T11:26:41.598Z,0.12
2017-09-08T11:27:42.636Z,0.11
2017-09-08T11:28:43.660Z,0.11
2017-09-08T11:29:31.730Z,0.12
2017-09-08T11:30:27.365Z,0.12
2017-09-08T11:31:20.802Z,0.13
2017-09-08T11:32:14.879Z,0.11
2017-09-08T11:33:15.285Z,0.08
2017-09-08T11:34:09.943Z,0.07
2017-09-08T11:35:09.915Z,0.08
2017-09-08T11:36:09.938Z,0.09
2017-09-08T11:37:10.088Z,0.07
2017-09-08T11:38:04.100Z,0.07
2017-09-08T11:38:59.144Z,0.08
2017-09-08T11:39:53.109Z,0.08
2017-09-08T11:40:59.145Z,0.07
2017-09-08T11:41:53.191Z,0.07
2017-09-08T11:42:48.540Z,0.07
2017-09-08T11:43:43.924Z,0.09
2017-09-08T11:44:43.371Z,0.09
2017-09-08T11:45:37.300Z,0.09
2017-09-08T11:46:32.470Z,0.08
2017-09-08T11:47:26.485Z,0.08
2017-09-08T11:48:22.227Z,0.10
2017-09-08T11:49:15.561Z,0.08
2017-09-08T11:50:10.592Z,0.08
2017-09-08T11:50:59.689Z,0.08
2017-09-08T11:51:54.658Z,0.08
2017-09-08T11:52:43.752Z,0.09
2017-09-08T11:53:38.839Z,0.09
2017-09-08T11:54:38.788Z,0.08
2017-09-08T11:55:32.782Z,0.10
2017-09-08T11:56:26.906Z,0.12
2017-09-08T11:57:26.913Z,0.12
2017-09-08T11:58:20.962Z,0.10
2017-09-08T11:59:14.970Z,0.08
2017-09-08T12:00:09.165Z,0.08
2017-09-08T12:01:09.014Z,0.07
2017-09-08T12:02:04.108Z,0.05
2017-09-08T12:02:58.166Z,0.06
2017-09-08T12:03:58.187Z,0.06
2017-09-08T12:04:52.707Z,0.09
2017-09-08T12:05:52.725Z,0.07
2017-09-08T12:06:46.289Z,0.06
2017-09-08T12:07:41.361Z,0.06
2017-09-08T12:08:35.367Z,0.08
2017-09-08T12:09:30.445Z,0.07
2017-09-08T12:10:24.532Z,0.06
2017-09-08T12:11:19.491Z,0.05
2017-09-08T12:12:20.592Z,0.06